sensor_id;sensor_type;location;lat;lon;timestamp;P1;durP1;ratioP1;P2;durP2;ratioP2
10096;SDS011;5087;42.662;23.466;2024-02-14T00:00:58;4.37;;;4.27;;
10096;SDS011;5087;42.662;23.466;2024-02-14T00:03:25;4.30;;;4.20;;
10096;SDS011;5087;42.662;23.466;2024-02-14T00:05:52;4.10;;;4.00;;
10096;SDS011;5087;42.662;23.466;2024-02-14T00:08:20;4.30;;;4.20;;
10096;SDS011;5087;42.662;23.466;2024-02-14T00:10:49;4.10;;;4.00;;
10096;SDS011;5087;42.662;23.466;2024-02-14T00:13:18;4.30;;;4.20;;
10096;SDS011;5087;42.662;23.466;2024-02-14T00:15:44;4.70;;;4.60;;
10096;SDS011;5087;42.662;23.466;2024-02-14T00:18:12;4.63;;;4.53;;
10096;SDS011;5087;42.662;23.466;2024-02-14T00:20:39;4.70;;;4.60;;
10096;SDS011;5087;42.662;23.466;2024-02-14T00:23:05;4.23;;;4.13;;
10096;SDS011;5087;42.662;23.466;2024-02-14T00:25:32;4.60;;;4.50;;
10096;SDS011;5087;42.662;23.466;2024-02-14T00:27:59;4.40;;;4.30;;
10096;SDS011;5087;42.662;23.466;2024-02-14T00:30:27;4.50;;;4.40;;
10096;SDS011;5087;42.662;23.466;2024-02-14T00:32:54;4.40;;;4.30;;
10096;SDS011;5087;42.662;23.466;2024-02-14T00:35:21;4.33;;;4.23;;
10096;SDS011;5087;42.662;23.466;2024-02-14T00:37:51;4.83;;;4.73;;
10096;SDS011;5087;42.662;23.466;2024-02-14T00:40:18;4.70;;;4.60;;
10096;SDS011;5087;42.662;23.466;2024-02-14T00:42:45;4.83;;;4.73;;
10096;SDS011;5087;42.662;23.466;2024-02-14T00:45:11;4.80;;;4.70;;
10096;SDS011;5087;42.662;23.466;2024-02-14T00:47:40;4.97;;;4.87;;
10096;SDS011;5087;42.662;23.466;2024-02-14T00:50:07;5.10;;;5.00;;
10096;SDS011;5087;42.662;23.466;2024-02-14T00:52:34;4.70;;;4.60;;
10096;SDS011;5087;42.662;23.466;2024-02-14T00:55:01;4.70;;;4.60;;
10096;SDS011;5087;42.662;23.466;2024-02-14T00:57:28;4.83;;;4.73;;
10096;SDS011;5087;42.662;23.466;2024-02-14T00:59:55;4.80;;;4.70;;
10096;SDS011;5087;42.662;23.466;2024-02-14T01:02:25;5.07;;;4.97;;
10096;SDS011;5087;42.662;23.466;2024-02-14T01:04:54;5.00;;;4.90;;
10096;SDS011;5087;42.662;23.466;2024-02-14T01:07:24;4.83;;;4.73;;
10096;SDS011;5087;42.662;23.466;2024-02-14T01:09:50;5.10;;;5.00;;
10096;SDS011;5087;42.662;23.466;2024-02-14T01:12:25;5.10;;;5.00;;
10096;SDS011;5087;42.662;23.466;2024-02-14T01:14:54;5.20;;;5.10;;
10096;SDS011;5087;42.662;23.466;2024-02-14T01:17:24;5.00;;;4.90;;
10096;SDS011;5087;42.662;23.466;2024-02-14T01:19:51;5.03;;;4.93;;
10096;SDS011;5087;42.662;23.466;2024-02-14T01:22:19;5.20;;;5.10;;
10096;SDS011;5087;42.662;23.466;2024-02-14T01:24:48;5.27;;;5.17;;
10096;SDS011;5087;42.662;23.466;2024-02-14T01:27:15;5.40;;;5.30;;
10096;SDS011;5087;42.662;23.466;2024-02-14T01:29:42;5.90;;;5.80;;
10096;SDS011;5087;42.662;23.466;2024-02-14T01:32:09;5.57;;;5.47;;
10096;SDS011;5087;42.662;23.466;2024-02-14T01:34:38;5.67;;;5.57;;
10096;SDS011;5087;42.662;23.466;2024-02-14T01:37:07;5.40;;;5.30;;
10096;SDS011;5087;42.662;23.466;2024-02-14T01:39:36;5.60;;;5.50;;
10096;SDS011;5087;42.662;23.466;2024-02-14T01:42:03;5.33;;;5.23;;
10096;SDS011;5087;42.662;23.466;2024-02-14T01:44:32;5.60;;;5.50;;
10096;SDS011;5087;42.662;23.466;2024-02-14T01:47:00;5.73;;;5.63;;
10096;SDS011;5087;42.662;23.466;2024-02-14T01:49:27;5.40;;;5.30;;
10096;SDS011;5087;42.662;23.466;2024-02-14T01:51:54;5.10;;;5.00;;
10096;SDS011;5087;42.662;23.466;2024-02-14T01:54:22;5.30;;;5.20;;
10096;SDS011;5087;42.662;23.466;2024-02-14T01:56:51;5.10;;;5.00;;
10096;SDS011;5087;42.662;23.466;2024-02-14T01:59:18;5.30;;;5.20;;
10096;SDS011;5087;42.662;23.466;2024-02-14T02:01:45;4.50;;;4.40;;
10096;SDS011;5087;42.662;23.466;2024-02-14T02:04:12;4.60;;;4.50;;
10096;SDS011;5087;42.662;23.466;2024-02-14T02:06:39;4.57;;;4.47;;
10096;SDS011;5087;42.662;23.466;2024-02-14T02:09:06;4.57;;;4.47;;
10096;SDS011;5087;42.662;23.466;2024-02-14T02:11:42;4.20;;;4.10;;
10096;SDS011;5087;42.662;23.466;2024-02-14T02:14:10;4.00;;;3.90;;
10096;SDS011;5087;42.662;23.466;2024-02-14T02:16:37;3.67;;;3.67;;
10096;SDS011;5087;42.662;23.466;2024-02-14T02:19:04;3.70;;;3.70;;
10096;SDS011;5087;42.662;23.466;2024-02-14T02:21:34;3.20;;;3.20;;
10096;SDS011;5087;42.662;23.466;2024-02-14T02:24:02;3.20;;;3.20;;
10096;SDS011;5087;42.662;23.466;2024-02-14T02:26:29;2.70;;;2.70;;
10096;SDS011;5087;42.662;23.466;2024-02-14T02:28:56;2.50;;;2.50;;
10096;SDS011;5087;42.662;23.466;2024-02-14T02:31:24;2.20;;;2.20;;
10096;SDS011;5087;42.662;23.466;2024-02-14T02:33:51;2.30;;;2.30;;
10096;SDS011;5087;42.662;23.466;2024-02-14T02:36:18;2.10;;;2.10;;
10096;SDS011;5087;42.662;23.466;2024-02-14T02:38:45;2.20;;;2.20;;
10096;SDS011;5087;42.662;23.466;2024-02-14T02:41:14;1.97;;;1.97;;
10096;SDS011;5087;42.662;23.466;2024-02-14T02:43:41;2.00;;;2.00;;
10096;SDS011;5087;42.662;23.466;2024-02-14T02:46:08;2.00;;;2.00;;
10096;SDS011;5087;42.662;23.466;2024-02-14T02:48:35;2.10;;;2.10;;
10096;SDS011;5087;42.662;23.466;2024-02-14T02:51:02;2.10;;;2.10;;
10096;SDS011;5087;42.662;23.466;2024-02-14T02:53:29;2.20;;;2.20;;
10096;SDS011;5087;42.662;23.466;2024-02-14T02:55:56;1.90;;;1.90;;
10096;SDS011;5087;42.662;23.466;2024-02-14T02:58:26;2.17;;;2.17;;
10096;SDS011;5087;42.662;23.466;2024-02-14T03:00:53;2.10;;;2.10;;
10096;SDS011;5087;42.662;23.466;2024-02-14T03:03:20;2.00;;;2.00;;
10096;SDS011;5087;42.662;23.466;2024-02-14T03:05:53;2.00;;;2.00;;
10096;SDS011;5087;42.662;23.466;2024-02-14T03:08:20;2.30;;;2.30;;
10096;SDS011;5087;42.662;23.466;2024-02-14T03:10:51;2.00;;;2.00;;
10096;SDS011;5087;42.662;23.466;2024-02-14T03:13:17;2.10;;;2.10;;
10096;SDS011;5087;42.662;23.466;2024-02-14T03:15:46;2.00;;;2.00;;
10096;SDS011;5087;42.662;23.466;2024-02-14T03:18:13;2.20;;;2.20;;
10096;SDS011;5087;42.662;23.466;2024-02-14T03:20:40;1.93;;;1.93;;
10096;SDS011;5087;42.662;23.466;2024-02-14T03:23:07;2.00;;;2.00;;
10096;SDS011;5087;42.662;23.466;2024-02-14T03:25:34;1.70;;;1.70;;
10096;SDS011;5087;42.662;23.466;2024-02-14T03:28:05;1.90;;;1.90;;
10096;SDS011;5087;42.662;23.466;2024-02-14T03:30:34;1.80;;;1.80;;
10096;SDS011;5087;42.662;23.466;2024-02-14T03:33:02;1.80;;;1.80;;
10096;SDS011;5087;42.662;23.466;2024-02-14T03:35:29;2.00;;;2.00;;
10096;SDS011;5087;42.662;23.466;2024-02-14T03:37:56;1.90;;;1.90;;
10096;SDS011;5087;42.662;23.466;2024-02-14T03:40:23;1.90;;;1.90;;
10096;SDS011;5087;42.662;23.466;2024-02-14T03:42:54;1.87;;;1.87;;
10096;SDS011;5087;42.662;23.466;2024-02-14T03:45:20;1.93;;;1.93;;
10096;SDS011;5087;42.662;23.466;2024-02-14T03:47:50;1.93;;;1.93;;
10096;SDS011;5087;42.662;23.466;2024-02-14T03:50:21;2.10;;;2.10;;
10096;SDS011;5087;42.662;23.466;2024-02-14T03:52:48;2.10;;;2.10;;
10096;SDS011;5087;42.662;23.466;2024-02-14T03:55:15;2.30;;;2.30;;
10096;SDS011;5087;42.662;23.466;2024-02-14T03:57:44;2.20;;;2.20;;
10096;SDS011;5087;42.662;23.466;2024-02-14T04:00:12;2.30;;;2.30;;
10096;SDS011;5087;42.662;23.466;2024-02-14T04:02:39;2.10;;;2.10;;
10096;SDS011;5087;42.662;23.466;2024-02-14T04:05:06;2.00;;;2.00;;
10096;SDS011;5087;42.662;23.466;2024-02-14T04:07:34;2.10;;;2.10;;
10096;SDS011;5087;42.662;23.466;2024-02-14T04:10:02;2.37;;;2.37;;
10096;SDS011;5087;42.662;23.466;2024-02-14T04:12:28;2.30;;;2.30;;
10096;SDS011;5087;42.662;23.466;2024-02-14T04:14:56;2.43;;;2.43;;
10096;SDS011;5087;42.662;23.466;2024-02-14T04:17:22;2.40;;;2.40;;
10096;SDS011;5087;42.662;23.466;2024-02-14T04:19:51;2.30;;;2.30;;
10096;SDS011;5087;42.662;23.466;2024-02-14T04:22:18;2.37;;;2.37;;
10096;SDS011;5087;42.662;23.466;2024-02-14T04:24:47;2.20;;;2.20;;
10096;SDS011;5087;42.662;23.466;2024-02-14T04:27:14;2.30;;;2.30;;
10096;SDS011;5087;42.662;23.466;2024-02-14T04:29:40;2.30;;;2.30;;
10096;SDS011;5087;42.662;23.466;2024-02-14T04:32:07;2.20;;;2.20;;
10096;SDS011;5087;42.662;23.466;2024-02-14T04:34:34;2.20;;;2.20;;
10096;SDS011;5087;42.662;23.466;2024-02-14T04:37:04;2.13;;;2.13;;
10096;SDS011;5087;42.662;23.466;2024-02-14T04:39:35;2.10;;;2.10;;
10096;SDS011;5087;42.662;23.466;2024-02-14T04:42:03;2.20;;;2.20;;
10096;SDS011;5087;42.662;23.466;2024-02-14T04:44:30;2.20;;;2.20;;
10096;SDS011;5087;42.662;23.466;2024-02-14T04:46:57;2.50;;;2.50;;
10096;SDS011;5087;42.662;23.466;2024-02-14T04:49:24;2.30;;;2.30;;
10096;SDS011;5087;42.662;23.466;2024-02-14T04:51:51;2.30;;;2.30;;
10096;SDS011;5087;42.662;23.466;2024-02-14T04:54:18;2.60;;;2.60;;
10096;SDS011;5087;42.662;23.466;2024-02-14T04:56:44;2.60;;;2.60;;
10096;SDS011;5087;42.662;23.466;2024-02-14T04:59:13;2.50;;;2.50;;
10096;SDS011;5087;42.662;23.466;2024-02-14T05:01:39;2.70;;;2.70;;
10096;SDS011;5087;42.662;23.466;2024-02-14T05:04:06;2.00;;;2.00;;
10096;SDS011;5087;42.662;23.466;2024-02-14T05:06:33;2.00;;;2.00;;
10096;SDS011;5087;42.662;23.466;2024-02-14T05:09:00;1.83;;;1.83;;
10096;SDS011;5087;42.662;23.466;2024-02-14T05:11:26;1.90;;;1.90;;
10096;SDS011;5087;42.662;23.466;2024-02-14T05:13:53;2.13;;;2.13;;
10096;SDS011;5087;42.662;23.466;2024-02-14T05:16:23;1.80;;;1.80;;
10096;SDS011;5087;42.662;23.466;2024-02-14T05:18:49;1.77;;;1.77;;
10096;SDS011;5087;42.662;23.466;2024-02-14T05:21:16;1.90;;;1.90;;
10096;SDS011;5087;42.662;23.466;2024-02-14T05:23:47;1.80;;;1.80;;
10096;SDS011;5087;42.662;23.466;2024-02-14T05:26:13;1.90;;;1.90;;
10096;SDS011;5087;42.662;23.466;2024-02-14T05:28:40;1.60;;;1.60;;
10096;SDS011;5087;42.662;23.466;2024-02-14T05:31:07;1.60;;;1.60;;
10096;SDS011;5087;42.662;23.466;2024-02-14T05:33:36;1.50;;;1.50;;
10096;SDS011;5087;42.662;23.466;2024-02-14T05:36:03;1.50;;;1.50;;
10096;SDS011;5087;42.662;23.466;2024-02-14T05:38:31;1.50;;;1.50;;
10096;SDS011;5087;42.662;23.466;2024-02-14T05:40:58;1.50;;;1.50;;
10096;SDS011;5087;42.662;23.466;2024-02-14T05:43:25;1.60;;;1.60;;
10096;SDS011;5087;42.662;23.466;2024-02-14T05:45:52;1.60;;;1.60;;
10096;SDS011;5087;42.662;23.466;2024-02-14T05:48:19;1.63;;;1.63;;
10096;SDS011;5087;42.662;23.466;2024-02-14T05:50:47;1.80;;;1.80;;
10096;SDS011;5087;42.662;23.466;2024-02-14T05:53:14;2.10;;;2.10;;
10096;SDS011;5087;42.662;23.466;2024-02-14T05:55:41;1.90;;;1.90;;
10096;SDS011;5087;42.662;23.466;2024-02-14T05:58:07;1.90;;;1.90;;
10096;SDS011;5087;42.662;23.466;2024-02-14T06:00:34;2.10;;;2.10;;
10096;SDS011;5087;42.662;23.466;2024-02-14T06:03:01;2.00;;;2.00;;
10096;SDS011;5087;42.662;23.466;2024-02-14T06:05:30;1.80;;;1.80;;
10096;SDS011;5087;42.662;23.466;2024-02-14T06:07:58;1.70;;;1.70;;
10096;SDS011;5087;42.662;23.466;2024-02-14T06:10:28;1.70;;;1.70;;
10096;SDS011;5087;42.662;23.466;2024-02-14T06:12:54;1.90;;;1.90;;
10096;SDS011;5087;42.662;23.466;2024-02-14T06:15:25;1.70;;;1.70;;
10096;SDS011;5087;42.662;23.466;2024-02-14T06:17:51;1.70;;;1.70;;
10096;SDS011;5087;42.662;23.466;2024-02-14T06:20:18;1.80;;;1.80;;
10096;SDS011;5087;42.662;23.466;2024-02-14T06:22:45;1.80;;;1.80;;
10096;SDS011;5087;42.662;23.466;2024-02-14T06:25:13;2.20;;;2.20;;
10096;SDS011;5087;42.662;23.466;2024-02-14T06:27:41;2.20;;;2.20;;
10096;SDS011;5087;42.662;23.466;2024-02-14T06:30:08;2.00;;;2.00;;
10096;SDS011;5087;42.662;23.466;2024-02-14T06:32:35;2.20;;;2.20;;
10096;SDS011;5087;42.662;23.466;2024-02-14T06:35:02;2.00;;;2.00;;
10096;SDS011;5087;42.662;23.466;2024-02-14T06:37:29;2.17;;;2.17;;
10096;SDS011;5087;42.662;23.466;2024-02-14T06:39:56;2.20;;;2.20;;
10096;SDS011;5087;42.662;23.466;2024-02-14T06:42:24;2.20;;;2.20;;
10096;SDS011;5087;42.662;23.466;2024-02-14T06:44:51;2.20;;;2.20;;
10096;SDS011;5087;42.662;23.466;2024-02-14T06:47:18;2.40;;;2.40;;
10096;SDS011;5087;42.662;23.466;2024-02-14T06:49:45;2.37;;;2.37;;
10096;SDS011;5087;42.662;23.466;2024-02-14T06:52:11;2.40;;;2.40;;
10096;SDS011;5087;42.662;23.466;2024-02-14T06:54:38;2.53;;;2.53;;
10096;SDS011;5087;42.662;23.466;2024-02-14T06:57:05;3.10;;;3.10;;
10096;SDS011;5087;42.662;23.466;2024-02-14T06:59:34;2.80;;;2.80;;
10096;SDS011;5087;42.662;23.466;2024-02-14T07:02:03;3.10;;;3.10;;
10096;SDS011;5087;42.662;23.466;2024-02-14T07:04:30;2.90;;;2.90;;
10096;SDS011;5087;42.662;23.466;2024-02-14T07:06:57;3.00;;;3.00;;
10096;SDS011;5087;42.662;23.466;2024-02-14T07:09:25;2.80;;;2.80;;
10096;SDS011;5087;42.662;23.466;2024-02-14T07:11:52;2.60;;;2.60;;
10096;SDS011;5087;42.662;23.466;2024-02-14T07:14:24;3.30;;;3.30;;
10096;SDS011;5087;42.662;23.466;2024-02-14T07:16:52;3.50;;;3.50;;
10096;SDS011;5087;42.662;23.466;2024-02-14T07:19:19;3.10;;;3.10;;
10096;SDS011;5087;42.662;23.466;2024-02-14T07:21:45;3.20;;;3.20;;
10096;SDS011;5087;42.662;23.466;2024-02-14T07:24:12;2.93;;;2.93;;
10096;SDS011;5087;42.662;23.466;2024-02-14T07:26:39;3.20;;;3.20;;
10096;SDS011;5087;42.662;23.466;2024-02-14T07:29:09;3.10;;;3.10;;
10096;SDS011;5087;42.662;23.466;2024-02-14T07:31:36;3.17;;;3.17;;
10096;SDS011;5087;42.662;23.466;2024-02-14T07:34:04;3.20;;;3.20;;
10096;SDS011;5087;42.662;23.466;2024-02-14T07:36:32;3.10;;;3.10;;
10096;SDS011;5087;42.662;23.466;2024-02-14T07:38:58;3.30;;;3.30;;
10096;SDS011;5087;42.662;23.466;2024-02-14T07:41:25;3.37;;;3.37;;
10096;SDS011;5087;42.662;23.466;2024-02-14T07:43:52;3.40;;;3.40;;
10096;SDS011;5087;42.662;23.466;2024-02-14T07:46:19;3.30;;;3.30;;
10096;SDS011;5087;42.662;23.466;2024-02-14T07:48:48;3.40;;;3.40;;
10096;SDS011;5087;42.662;23.466;2024-02-14T07:51:16;3.40;;;3.40;;
10096;SDS011;5087;42.662;23.466;2024-02-14T07:53:46;3.50;;;3.50;;
10096;SDS011;5087;42.662;23.466;2024-02-14T07:56:13;3.40;;;3.40;;
10096;SDS011;5087;42.662;23.466;2024-02-14T07:58:39;3.53;;;3.53;;
10096;SDS011;5087;42.662;23.466;2024-02-14T08:01:06;3.70;;;3.70;;
10096;SDS011;5087;42.662;23.466;2024-02-14T08:03:33;3.40;;;3.40;;
10096;SDS011;5087;42.662;23.466;2024-02-14T08:06:00;3.40;;;3.40;;
10096;SDS011;5087;42.662;23.466;2024-02-14T08:08:28;3.30;;;3.30;;
10096;SDS011;5087;42.662;23.466;2024-02-14T08:10:55;3.80;;;3.80;;
10096;SDS011;5087;42.662;23.466;2024-02-14T08:13:25;3.40;;;3.40;;
10096;SDS011;5087;42.662;23.466;2024-02-14T08:15:52;3.30;;;3.30;;
10096;SDS011;5087;42.662;23.466;2024-02-14T08:18:18;3.20;;;3.20;;
10096;SDS011;5087;42.662;23.466;2024-02-14T08:20:45;3.40;;;3.40;;
10096;SDS011;5087;42.662;23.466;2024-02-14T08:23:12;3.23;;;3.23;;
10096;SDS011;5087;42.662;23.466;2024-02-14T08:25:40;3.20;;;3.20;;
10096;SDS011;5087;42.662;23.466;2024-02-14T08:28:07;3.20;;;3.20;;
10096;SDS011;5087;42.662;23.466;2024-02-14T08:30:34;2.90;;;2.90;;
10096;SDS011;5087;42.662;23.466;2024-02-14T08:33:00;3.30;;;3.30;;
10096;SDS011;5087;42.662;23.466;2024-02-14T08:35:26;3.20;;;3.20;;
10096;SDS011;5087;42.662;23.466;2024-02-14T08:37:53;3.40;;;3.40;;
10096;SDS011;5087;42.662;23.466;2024-02-14T08:40:20;3.70;;;3.70;;
10096;SDS011;5087;42.662;23.466;2024-02-14T08:42:49;3.70;;;3.70;;
10096;SDS011;5087;42.662;23.466;2024-02-14T08:45:16;3.60;;;3.60;;
10096;SDS011;5087;42.662;23.466;2024-02-14T08:47:43;3.50;;;3.50;;
10096;SDS011;5087;42.662;23.466;2024-02-14T08:50:10;3.90;;;3.90;;
10096;SDS011;5087;42.662;23.466;2024-02-14T08:52:37;3.80;;;3.80;;
10096;SDS011;5087;42.662;23.466;2024-02-14T08:55:04;3.60;;;3.60;;
10096;SDS011;5087;42.662;23.466;2024-02-14T08:57:33;3.80;;;3.80;;
10096;SDS011;5087;42.662;23.466;2024-02-14T09:00:02;4.00;;;3.90;;
10096;SDS011;5087;42.662;23.466;2024-02-14T09:02:29;3.90;;;3.90;;
10096;SDS011;5087;42.662;23.466;2024-02-14T09:04:56;3.80;;;3.80;;
10096;SDS011;5087;42.662;23.466;2024-02-14T09:07:23;3.73;;;3.73;;
10096;SDS011;5087;42.662;23.466;2024-02-14T09:09:50;3.80;;;3.80;;
10096;SDS011;5087;42.662;23.466;2024-02-14T09:12:16;3.90;;;3.90;;
10096;SDS011;5087;42.662;23.466;2024-02-14T09:14:43;3.90;;;3.90;;
10096;SDS011;5087;42.662;23.466;2024-02-14T09:17:11;3.87;;;3.87;;
10096;SDS011;5087;42.662;23.466;2024-02-14T09:19:38;3.73;;;3.73;;
10096;SDS011;5087;42.662;23.466;2024-02-14T09:22:05;3.70;;;3.70;;
10096;SDS011;5087;42.662;23.466;2024-02-14T09:24:32;3.60;;;3.60;;
10096;SDS011;5087;42.662;23.466;2024-02-14T09:26:59;3.90;;;3.90;;
10096;SDS011;5087;42.662;23.466;2024-02-14T09:29:27;3.50;;;3.50;;
10096;SDS011;5087;42.662;23.466;2024-02-14T09:31:54;3.67;;;3.67;;
10096;SDS011;5087;42.662;23.466;2024-02-14T09:34:30;3.83;;;3.83;;
10096;SDS011;5087;42.662;23.466;2024-02-14T09:36:57;3.90;;;3.90;;
10096;SDS011;5087;42.662;23.466;2024-02-14T09:39:24;3.70;;;3.70;;
10096;SDS011;5087;42.662;23.466;2024-02-14T09:41:54;3.50;;;3.50;;
10096;SDS011;5087;42.662;23.466;2024-02-14T09:44:22;3.80;;;3.80;;
10096;SDS011;5087;42.662;23.466;2024-02-14T09:46:53;3.80;;;3.80;;
10096;SDS011;5087;42.662;23.466;2024-02-14T09:49:25;3.40;;;3.40;;
10096;SDS011;5087;42.662;23.466;2024-02-14T09:51:54;3.60;;;3.60;;
10096;SDS011;5087;42.662;23.466;2024-02-14T09:54:23;3.40;;;3.40;;
10096;SDS011;5087;42.662;23.466;2024-02-14T09:56:51;3.80;;;3.80;;
10096;SDS011;5087;42.662;23.466;2024-02-14T09:59:19;3.80;;;3.80;;
10096;SDS011;5087;42.662;23.466;2024-02-14T10:01:46;3.77;;;3.77;;
10096;SDS011;5087;42.662;23.466;2024-02-14T10:04:14;3.50;;;3.50;;
10096;SDS011;5087;42.662;23.466;2024-02-14T10:06:47;3.80;;;3.80;;
10096;SDS011;5087;42.662;23.466;2024-02-14T10:09:18;3.73;;;3.73;;
10096;SDS011;5087;42.662;23.466;2024-02-14T10:11:44;4.00;;;4.00;;
10096;SDS011;5087;42.662;23.466;2024-02-14T10:14:12;4.20;;;4.10;;
10096;SDS011;5087;42.662;23.466;2024-02-14T10:16:39;3.90;;;3.90;;
10096;SDS011;5087;42.662;23.466;2024-02-14T10:19:13;3.90;;;3.90;;
10096;SDS011;5087;42.662;23.466;2024-02-14T10:21:40;4.00;;;3.90;;
10096;SDS011;5087;42.662;23.466;2024-02-14T10:24:08;4.03;;;3.93;;
10096;SDS011;5087;42.662;23.466;2024-02-14T10:26:35;3.90;;;3.90;;
10096;SDS011;5087;42.662;23.466;2024-02-14T10:29:03;3.60;;;3.60;;
10096;SDS011;5087;42.662;23.466;2024-02-14T10:31:30;3.60;;;3.60;;
10096;SDS011;5087;42.662;23.466;2024-02-14T10:33:57;3.77;;;3.77;;
10096;SDS011;5087;42.662;23.466;2024-02-14T10:36:25;3.80;;;3.80;;
10096;SDS011;5087;42.662;23.466;2024-02-14T10:38:52;3.77;;;3.77;;
10096;SDS011;5087;42.662;23.466;2024-02-14T10:41:20;3.83;;;3.83;;
10096;SDS011;5087;42.662;23.466;2024-02-14T10:43:48;3.93;;;3.90;;
10096;SDS011;5087;42.662;23.466;2024-02-14T10:46:15;4.30;;;4.20;;
10096;SDS011;5087;42.662;23.466;2024-02-14T10:48:45;4.20;;;4.10;;
10096;SDS011;5087;42.662;23.466;2024-02-14T10:51:12;3.80;;;3.80;;
10096;SDS011;5087;42.662;23.466;2024-02-14T10:53:41;3.60;;;3.60;;
10096;SDS011;5087;42.662;23.466;2024-02-14T10:56:11;3.60;;;3.60;;
10096;SDS011;5087;42.662;23.466;2024-02-14T10:58:40;3.83;;;3.83;;
10096;SDS011;5087;42.662;23.466;2024-02-14T11:01:08;3.97;;;3.90;;
10096;SDS011;5087;42.662;23.466;2024-02-14T11:03:34;4.17;;;4.07;;
10096;SDS011;5087;42.662;23.466;2024-02-14T11:06:02;3.90;;;3.90;;
10096;SDS011;5087;42.662;23.466;2024-02-14T11:08:30;4.10;;;4.00;;
10096;SDS011;5087;42.662;23.466;2024-02-14T11:10:58;3.73;;;3.73;;
10096;SDS011;5087;42.662;23.466;2024-02-14T11:13:25;3.90;;;3.90;;
10096;SDS011;5087;42.662;23.466;2024-02-14T11:15:55;4.00;;;4.00;;
10096;SDS011;5087;42.662;23.466;2024-02-14T11:18:25;3.87;;;3.87;;
10096;SDS011;5087;42.662;23.466;2024-02-14T11:20:52;3.80;;;3.80;;
10096;SDS011;5087;42.662;23.466;2024-02-14T11:23:21;3.80;;;3.80;;
10096;SDS011;5087;42.662;23.466;2024-02-14T11:25:58;3.77;;;3.77;;
10096;SDS011;5087;42.662;23.466;2024-02-14T11:28:25;4.20;;;4.10;;
10096;SDS011;5087;42.662;23.466;2024-02-14T11:30:52;3.90;;;3.90;;
10096;SDS011;5087;42.662;23.466;2024-02-14T11:33:22;4.07;;;3.97;;
10096;SDS011;5087;42.662;23.466;2024-02-14T11:35:52;4.10;;;4.00;;
10096;SDS011;5087;42.662;23.466;2024-02-14T11:38:20;3.90;;;3.90;;
10096;SDS011;5087;42.662;23.466;2024-02-14T11:40:50;4.07;;;3.97;;
10096;SDS011;5087;42.662;23.466;2024-02-14T11:43:17;4.13;;;4.03;;
10096;SDS011;5087;42.662;23.466;2024-02-14T11:45:45;4.20;;;4.10;;
10096;SDS011;5087;42.662;23.466;2024-02-14T11:48:15;3.80;;;3.80;;
10096;SDS011;5087;42.662;23.466;2024-02-14T11:50:44;4.00;;;3.90;;
10096;SDS011;5087;42.662;23.466;2024-02-14T11:53:12;3.80;;;3.80;;
10096;SDS011;5087;42.662;23.466;2024-02-14T11:55:42;3.60;;;3.60;;
10096;SDS011;5087;42.662;23.466;2024-02-14T11:58:09;4.10;;;4.00;;
10096;SDS011;5087;42.662;23.466;2024-02-14T12:00:37;4.10;;;4.00;;
10096;SDS011;5087;42.662;23.466;2024-02-14T12:03:05;3.97;;;3.93;;
10096;SDS011;5087;42.662;23.466;2024-02-14T12:05:33;4.20;;;4.10;;
10096;SDS011;5087;42.662;23.466;2024-02-14T12:08:01;3.80;;;3.80;;
10096;SDS011;5087;42.662;23.466;2024-02-14T12:10:30;3.90;;;3.90;;
10096;SDS011;5087;42.662;23.466;2024-02-14T12:12:57;3.90;;;3.90;;
10096;SDS011;5087;42.662;23.466;2024-02-14T12:15:25;3.73;;;3.73;;
10096;SDS011;5087;42.662;23.466;2024-02-14T12:17:54;3.97;;;3.90;;
10096;SDS011;5087;42.662;23.466;2024-02-14T12:20:21;3.90;;;3.90;;
10096;SDS011;5087;42.662;23.466;2024-02-14T12:22:51;4.30;;;4.20;;
10096;SDS011;5087;42.662;23.466;2024-02-14T12:25:20;3.77;;;3.77;;
10096;SDS011;5087;42.662;23.466;2024-02-14T12:27:50;3.80;;;3.80;;
10096;SDS011;5087;42.662;23.466;2024-02-14T12:30:17;4.10;;;4.00;;
10096;SDS011;5087;42.662;23.466;2024-02-14T12:32:44;4.20;;;4.10;;
10096;SDS011;5087;42.662;23.466;2024-02-14T12:35:11;3.90;;;3.87;;
10096;SDS011;5087;42.662;23.466;2024-02-14T12:37:38;4.07;;;4.00;;
10096;SDS011;5087;42.662;23.466;2024-02-14T12:40:05;4.03;;;4.00;;
10096;SDS011;5087;42.662;23.466;2024-02-14T12:42:33;3.80;;;3.80;;
10096;SDS011;5087;42.662;23.466;2024-02-14T12:45:01;3.83;;;3.83;;
10096;SDS011;5087;42.662;23.466;2024-02-14T12:47:27;3.97;;;3.90;;
10096;SDS011;5087;42.662;23.466;2024-02-14T12:49:57;3.80;;;3.80;;
10096;SDS011;5087;42.662;23.466;2024-02-14T12:52:24;3.90;;;3.90;;
10096;SDS011;5087;42.662;23.466;2024-02-14T12:54:51;4.10;;;4.00;;
10096;SDS011;5087;42.662;23.466;2024-02-14T12:57:18;4.30;;;4.20;;
10096;SDS011;5087;42.662;23.466;2024-02-14T12:59:48;3.63;;;3.63;;
10096;SDS011;5087;42.662;23.466;2024-02-14T13:02:15;3.60;;;3.60;;
10096;SDS011;5087;42.662;23.466;2024-02-14T13:04:42;3.40;;;3.40;;
10096;SDS011;5087;42.662;23.466;2024-02-14T13:07:09;3.50;;;3.50;;
10096;SDS011;5087;42.662;23.466;2024-02-14T13:09:36;3.60;;;3.60;;
10096;SDS011;5087;42.662;23.466;2024-02-14T13:12:03;3.50;;;3.50;;
10096;SDS011;5087;42.662;23.466;2024-02-14T13:14:32;3.60;;;3.60;;
10096;SDS011;5087;42.662;23.466;2024-02-14T13:17:01;3.80;;;3.80;;
10096;SDS011;5087;42.662;23.466;2024-02-14T13:19:27;3.80;;;3.80;;
10096;SDS011;5087;42.662;23.466;2024-02-14T13:21:54;3.70;;;3.70;;
10096;SDS011;5087;42.662;23.466;2024-02-14T13:24:21;3.60;;;3.60;;
10096;SDS011;5087;42.662;23.466;2024-02-14T13:26:50;3.70;;;3.70;;
10096;SDS011;5087;42.662;23.466;2024-02-14T13:29:17;3.50;;;3.50;;
10096;SDS011;5087;42.662;23.466;2024-02-14T13:31:44;3.30;;;3.30;;
10096;SDS011;5087;42.662;23.466;2024-02-14T13:34:13;3.50;;;3.50;;
10096;SDS011;5087;42.662;23.466;2024-02-14T13:36:40;3.40;;;3.40;;
10096;SDS011;5087;42.662;23.466;2024-02-14T13:39:07;3.70;;;3.70;;
10096;SDS011;5087;42.662;23.466;2024-02-14T13:41:34;3.50;;;3.50;;
10096;SDS011;5087;42.662;23.466;2024-02-14T13:44:04;3.67;;;3.67;;
10096;SDS011;5087;42.662;23.466;2024-02-14T13:46:30;3.50;;;3.50;;
10096;SDS011;5087;42.662;23.466;2024-02-14T13:48:57;3.50;;;3.50;;
10096;SDS011;5087;42.662;23.466;2024-02-14T13:51:26;3.30;;;3.30;;
10096;SDS011;5087;42.662;23.466;2024-02-14T13:53:53;3.30;;;3.30;;
10096;SDS011;5087;42.662;23.466;2024-02-14T13:56:20;3.70;;;3.70;;
10096;SDS011;5087;42.662;23.466;2024-02-14T13:58:48;3.40;;;3.40;;
10096;SDS011;5087;42.662;23.466;2024-02-14T14:01:15;3.30;;;3.30;;
10096;SDS011;5087;42.662;23.466;2024-02-14T14:03:42;3.30;;;3.30;;
10096;SDS011;5087;42.662;23.466;2024-02-14T14:06:09;3.80;;;3.80;;
10096;SDS011;5087;42.662;23.466;2024-02-14T14:08:37;3.60;;;3.60;;
10096;SDS011;5087;42.662;23.466;2024-02-14T14:11:04;3.60;;;3.60;;
10096;SDS011;5087;42.662;23.466;2024-02-14T14:13:34;3.50;;;3.50;;
10096;SDS011;5087;42.662;23.466;2024-02-14T14:16:01;3.47;;;3.47;;
10096;SDS011;5087;42.662;23.466;2024-02-14T14:18:29;3.40;;;3.40;;
10096;SDS011;5087;42.662;23.466;2024-02-14T14:20:55;3.60;;;3.60;;
10096;SDS011;5087;42.662;23.466;2024-02-14T14:23:22;3.70;;;3.70;;
10096;SDS011;5087;42.662;23.466;2024-02-14T14:25:53;3.30;;;3.30;;
10096;SDS011;5087;42.662;23.466;2024-02-14T14:28:20;3.40;;;3.40;;
10096;SDS011;5087;42.662;23.466;2024-02-14T14:30:50;3.20;;;3.20;;
10096;SDS011;5087;42.662;23.466;2024-02-14T14:33:18;3.40;;;3.40;;
10096;SDS011;5087;42.662;23.466;2024-02-14T14:35:44;3.50;;;3.50;;
10096;SDS011;5087;42.662;23.466;2024-02-14T14:38:11;3.17;;;3.17;;
10096;SDS011;5087;42.662;23.466;2024-02-14T14:40:38;3.37;;;3.37;;
10096;SDS011;5087;42.662;23.466;2024-02-14T14:43:06;3.10;;;3.10;;
10096;SDS011;5087;42.662;23.466;2024-02-14T14:45:33;3.30;;;3.30;;
10096;SDS011;5087;42.662;23.466;2024-02-14T14:48:00;3.20;;;3.20;;
10096;SDS011;5087;42.662;23.466;2024-02-14T14:50:27;3.00;;;3.00;;